Time;durP1;ratioP1;P1;durP2;ratioP2;P2;SDS_P1;SDS_P2;PMS_P1;PMS_P2;Temp;Humidity;BMP_temperature;BMP_pressure;BME280_temperature;BME280_humidity;BME280_pressure;Samples;Min_cycle;Max_cycle;Signal;HPM_P1;HPM_P2
2021/06/12 00:02:09;;;;;;;11.10;9.33;;;;;;;12.09;86.39;98104.26;1766213;80;20933;-77
2021/06/12 00:04:35;;;;;;;14.28;8.10;;;;;;;12.10;86.12;98106.68;1797298;79;20964;-77
2021/06/12 00:07:01;;;;;;;13.78;8.13;;;;;;;12.10;86.78;98109.39;1765956;80;21739;-77
2021/06/12 00:09:27;;;;;;;11.18;8.93;;;;;;;12.11;85.36;98106.13;1797069;79;20926;-77
2021/06/12 00:11:53;;;;;;;8.78;7.30;;;;;;;12.14;84.51;98104.22;1765619;81;20889;-77
2021/06/12 00:14:19;;;;;;;11.45;8.43;;;;;;;12.09;84.19;98100.18;1797712;79;21068;-77
2021/06/12 00:16:45;;;;;;;13.83;9.75;;;;;;;12.01;84.58;98104.33;1765944;81;20893;-76
2021/06/12 00:19:11;;;;;;;10.60;9.00;;;;;;;11.95;86.36;98105.47;1797553;79;21796;-76
2021/06/12 00:21:37;;;;;;;11.25;8.75;;;;;;;11.97;86.28;98106.02;1765326;80;20949;-76
2021/06/12 00:24:05;;;;;;;9.75;7.47;;;;;;;11.99;85.46;98108.44;1787792;80;20962;-76
2021/06/12 00:26:31;;;;;;;9.95;8.43;;;;;;;11.99;84.39;98109.80;1787836;80;20985;-76
2021/06/12 00:28:57;;;;;;;11.45;9.48;;;;;;;11.92;84.51;98107.95;1787776;80;21323;-76
2021/06/12 00:31:23;;;;;;;12.53;9.63;;;;;;;11.84;86.02;98100.69;1787958;80;21812;-76
2021/06/12 00:33:49;;;;;;;10.78;8.63;;;;;;;11.84;85.65;98106.11;1787536;79;20925;-76
2021/06/12 00:36:15;;;;;;;12.05;8.08;;;;;;;11.86;85.33;98105.28;1787920;80;21023;-77
2021/06/12 00:38:41;;;;;;;11.75;9.05;;;;;;;11.78;85.83;98107.22;1787559;80;20952;-76
2021/06/12 00:41:11;;;;;;;13.40;8.70;;;;;;;11.73;85.87;98103.20;1788117;80;21091;-76
2021/06/12 00:43:40;;;;;;;9.80;8.05;;;;;;;11.70;85.34;98102.95;1764895;80;21116;-76
2021/06/12 00:46:05;;;;;;;9.88;8.10;;;;;;;11.64;84.97;98100.84;1787569;80;20973;-76
2021/06/12 00:48:30;;;;;;;10.18;7.60;;;;;;;11.62;84.36;98102.20;1787813;80;20918;-76
2021/06/12 00:50:56;;;;;;;9.80;8.78;;;;;;;11.57;84.51;98106.59;1765054;81;20976;-76
2021/06/12 00:53:37;;;;;;;9.30;7.85;;;;;;;11.57;84.18;98102.52;1787672;80;20878;-76
2021/06/12 00:55:53;;;;;;;9.45;7.65;;;;;;;11.51;84.83;98100.94;1783632;80;21349;-76
2021/06/12 00:58:18;;;;;;;11.60;7.70;;;;;;;11.49;85.20;98099.06;1784700;80;21063;-76
2021/06/12 01:00:44;;;;;;;11.40;7.60;;;;;;;11.51;84.76;98098.77;1787953;80;21504;-76
2021/06/12 01:03:10;;;;;;;17.50;8.98;;;;;;;11.47;85.03;98103.16;1787845;80;20826;-76
2021/06/12 01:05:36;;;;;;;11.40;8.48;;;;;;;11.46;84.43;98096.11;1788013;80;21023;-76
2021/06/12 01:08:02;;;;;;;9.35;8.25;;;;;;;11.43;85.20;98096.11;1765079;80;21193;-76
2021/06/12 01:10:28;;;;;;;10.03;7.53;;;;;;;11.41;84.90;98100.20;1787844;80;21028;-76
2021/06/12 01:13:35;;;;;;;11.90;8.10;;;;;;;11.39;85.22;98095.07;1787744;80;20833;-76
2021/06/12 01:16:26;;;;;;;9.85;7.92;;;;;;;11.37;84.67;98102.69;1747803;81;20984;-78
2021/06/12 01:18:52;;;;;;;12.93;8.15;;;;;;;11.38;85.07;98097.52;1787589;80;21395;-77
2021/06/12 01:21:34;;;;;;;10.25;7.55;;;;;;;11.38;85.07;98097.52;1758987;80;21485;-77
2021/06/12 01:24:45;;;;;;;12.18;7.45;;;;;;;11.35;86.36;98099.42;1787518;80;21017;-77
2021/06/12 01:27:20;;;;;;;10.00;7.58;;;;;;;11.31;86.07;98101.09;1758674;80;20937;-77
2021/06/12 01:30:15;;;;;;;12.40;8.70;;;;;;;11.29;85.41;98100.03;1787518;79;20946;-77
2021/06/12 01:32:46;;;;;;;9.70;8.43;;;;;;;11.28;85.32;98100.31;1787618;80;21013;-76
2021/06/12 01:35:23;;;;;;;10.55;8.25;;;;;;;11.24;85.32;98095.17;1796190;79;21869;-76
2021/06/12 01:37:50;;;;;;;10.35;7.45;;;;;;;11.24;85.96;98097.89;1787819;80;21012;-77
2021/06/12 01:40:17;;;;;;;10.60;6.97;;;;;;;11.18;86.29;98094.39;1787847;80;21036;-76
2021/06/12 01:42:46;;;;;;;11.83;7.72;;;;;;;11.15;85.91;98084.66;1758980;80;20918;-77
2021/06/12 01:45:12;;;;;;;8.58;7.10;;;;;;;11.16;85.26;98087.63;1765037;81;21028;-76
2021/06/12 01:47:38;;;;;;;10.95;7.45;;;;;;;11.12;85.32;98083.88;1787810;80;21120;-76
2021/06/12 01:50:06;;;;;;;8.85;7.33;;;;;;;11.13;84.87;98088.20;1787795;80;20945;-76
2021/06/12 01:52:32;;;;;;;9.28;7.05;;;;;;;11.04;85.23;98079.05;1759616;80;20969;-76
2021/06/12 01:54:58;;;;;;;9.70;7.85;;;;;;;10.96;85.33;98079.09;1787806;80;20862;-76
2021/06/12 01:57:24;;;;;;;9.15;7.17;;;;;;;10.90;85.95;98081.02;1787871;80;21355;-76
2021/06/12 01:59:50;;;;;;;13.93;8.03;;;;;;;10.90;85.55;98078.84;1758771;80;21203;-76
2021/06/12 02:02:16;;;;;;;10.45;7.87;;;;;;;10.88;85.11;98078.33;1788054;79;21011;-76
2021/06/12 02:04:42;;;;;;;10.03;7.78;;;;;;;10.88;85.11;98078.33;1787830;80;20966;-76
2021/06/12 02:07:08;;;;;;;10.05;8.28;;;;;;;10.79;85.81;98084.07;1759229;80;21099;-76
2021/06/12 02:09:36;;;;;;;9.78;7.95;;;;;;;10.79;85.81;98084.07;1787839;80;20830;-76
2021/06/12 02:12:04;;;;;;;11.85;8.98;;;;;;;10.76;85.70;98075.94;1787903;80;21904;-76
2021/06/12 02:14:30;;;;;;;10.32;7.70;;;;;;;10.77;86.27;98075.39;1747986;81;20985;-76
2021/06/12 02:16:56;;;;;;;10.10;7.80;;;;;;;10.73;86.44;98083.28;1788146;80;20984;-76
2021/06/12 02:19:23;;;;;;;13.45;8.40;;;;;;;10.73;85.86;98079.21;1784879;79;21008;-76
2021/06/12 02:21:49;;;;;;;9.38;7.90;;;;;;;10.72;86.07;98074.89;1787905;79;20910;-76
2021/06/12 02:24:15;;;;;;;11.35;8.30;;;;;;;10.74;87.09;98076.22;1784882;79;21078;-76
2021/06/12 02:26:43;;;;;;;12.53;8.43;;;;;;;10.78;86.48;98074.33;1787868;80;20885;-76
2021/06/12 02:29:09;;;;;;;10.67;8.63;;;;;;;10.80;85.92;98071.59;1765346;80;21012;-77
2021/06/12 02:31:46;;;;;;;9.08;7.62;;;;;;;10.76;86.37;98071.87;1787808;80;21259;-77
2021/06/12 02:34:12;;;;;;;10.93;9.25;;;;;;;10.72;86.43;98071.63;1787909;79;20965;-77
2021/06/12 02:36:38;;;;;;;9.95;8.38;;;;;;;10.73;85.77;98075.15;1788023;80;21057;-77
2021/06/12 02:39:06;;;;;;;9.15;7.72;;;;;;;10.76;85.68;98072.41;1787639;80;21523;-77
2021/06/12 02:41:34;;;;;;;14.03;8.88;;;;;;;10.77;86.00;98074.88;1759184;80;21028;-77
2021/06/12 02:44:00;;;;;;;8.30;7.17;;;;;;;10.74;86.77;98073.51;1787689;80;21028;-77
2021/06/12 02:46:31;;;;;;;10.43;7.80;;;;;;;10.73;86.44;98074.59;1787643;80;21075;-77
2021/06/12 02:49:01;;;;;;;11.83;7.95;;;;;;;10.67;85.57;98071.64;1747758;81;21901;-76
2021/06/12 02:51:29;;;;;;;11.65;7.75;;;;;;;10.66;85.72;98071.38;1787815;80;21013;-76
2021/06/12 02:53:55;;;;;;;11.33;7.75;;;;;;;10.64;85.43;98068.14;1784562;80;20910;-76
2021/06/12 02:56:21;;;;;;;12.00;7.85;;;;;;;10.63;85.30;98065.17;1759048;80;21461;-76
2021/06/12 02:58:47;;;;;;;13.30;9.20;;;;;;;10.64;85.11;98072.76;1787818;80;20910;-76
2021/06/12 03:01:14;;;;;;;11.40;8.15;;;;;;;10.63;84.80;98071.14;1764863;80;21090;-76
2021/06/12 03:03:39;;;;;;;10.98;8.83;;;;;;;10.57;84.98;98066.28;1787630;80;21040;-76
2021/06/12 03:06:05;;;;;;;13.60;8.53;;;;;;;10.52;85.92;98066.32;1765233;81;20971;-76
2021/06/12 03:08:39;;;;;;;11.28;8.58;;;;;;;10.55;85.54;98070.36;1788034;80;20965;-76
2021/06/12 03:11:06;;;;;;;10.35;8.10;;;;;;;10.54;86.05;98066.84;1784081;80;20962;-76
2021/06/12 03:13:32;;;;;;;11.25;7.92;;;;;;;10.54;85.48;98072.27;1787696;80;21378;-76
2021/06/12 03:16:02;;;;;;;11.57;8.65;;;;;;;10.56;85.91;98070.08;1787984;80;20826;-76
2021/06/12 03:18:27;;;;;;;;;;;;;;;10.59;85.40;98075.48;1790354;80;20961;-76
2021/06/12 03:20:58;;;;;;;9.33;7.72;;;;;;;10.53;87.36;98073.91;1788151;79;20226;-76
2021/06/12 03:23:26;;;;;;;9.93;8.05;;;;;;;10.61;86.03;98074.67;1784645;80;21334;-76
2021/06/12 03:25:53;;;;;;;10.82;9.35;;;;;;;10.66;86.90;98077.34;1787850;80;21330;-76
2021/06/12 03:28:19;;;;;;;11.88;8.15;;;;;;;10.75;86.68;98081.09;1787618;79;20989;-76
2021/06/12 03:30:46;;;;;;;12.68;8.35;;;;;;;10.84;85.98;98079.41;1787931;80;20976;-76
2021/06/12 03:33:14;;;;;;;11.90;8.70;;;;;;;10.94;85.67;98075.86;1787880;79;20894;-76
2021/06/12 03:35:41;;;;;;;15.23;10.38;;;;;;;11.00;85.35;98076.88;1788427;80;20990;-77
2021/06/12 03:38:07;;;;;;;14.73;10.15;;;;;;;11.02;84.68;98075.23;1784953;80;21320;-77
2021/06/12 03:40:34;;;;;;;14.13;9.23;;;;;;;11.02;84.68;98075.23;1787917;79;21469;-77
2021/06/12 03:43:00;;;;;;;14.35;10.35;;;;;;;11.28;84.47;98082.69;1765031;80;21056;-77
2021/06/12 03:45:26;;;;;;;12.05;9.05;;;;;;;11.28;84.47;98082.69;1788166;80;21039;-77
2021/06/12 03:47:52;;;;;;;12.07;10.00;;;;;;;11.43;84.05;98080.37;1787961;79;21651;-77
2021/06/12 03:50:19;;;;;;;13.25;9.83;;;;;;;11.51;84.80;98077.06;1784943;79;21945;-77
2021/06/12 03:52:45;;;;;;;13.55;11.18;;;;;;;11.65;83.76;98081.30;1787681;80;20966;-77
2021/06/12 03:55:11;;;;;;;11.95;9.65;;;;;;;11.76;83.24;98082.27;1787890;80;20956;-77
2021/06/12 03:57:37;;;;;;;13.50;9.18;;;;;;;11.82;82.66;98083.88;1787918;80;21036;-77
2021/06/12 04:00:11;;;;;;;10.15;8.68;;;;;;;11.93;82.79;98084.58;1747631;81;21079;-77
2021/06/12 04:02:37;;;;;;;15.30;9.63;;;;;;;12.03;82.67;98088.55;1788014;80;21070;-76
2021/06/12 04:05:04;;;;;;;10.40;8.13;;;;;;;12.15;82.25;98092.25;1787485;80;21068;-76
2021/06/12 04:07:30;;;;;;;10.48;8.38;;;;;;;12.28;82.36;98093.45;1765101;80;20965;-76
2021/06/12 04:09:56;;;;;;;11.60;10.05;;;;;;;12.48;82.18;98097.88;1787607;80;20918;-76
2021/06/12 04:12:22;;;;;;;10.88;8.98;;;;;;;12.69;82.09;98102.75;1787963;80;21453;-76
2021/06/12 04:14:48;;;;;;;10.95;9.10;;;;;;;12.81;81.45;98103.67;1764878;80;21126;-76
2021/06/12 04:17:15;;;;;;;12.63;9.65;;;;;;;12.80;80.73;98099.34;1787971;80;21445;-77
2021/06/12 04:19:42;;;;;;;12.47;9.25;;;;;;;13.02;80.26;98093.91;1764842;80;21013;-76
2021/06/12 04:22:08;;;;;;;11.70;9.53;;;;;;;13.09;79.74;98098.43;1787867;80;21027;-76
2021/06/12 04:24:34;;;;;;;10.82;9.30;;;;;;;13.16;79.94;98091.52;1787722;80;20941;-76
2021/06/12 04:27:00;;;;;;;11.00;8.65;;;;;;;13.36;79.77;98089.63;1787577;79;21109;-76
2021/06/12 04:29:27;;;;;;;15.50;9.18;;;;;;;13.45;79.60;98088.66;1787750;80;20997;-76
2021/06/12 04:31:53;;;;;;;10.10;8.83;;;;;;;13.70;79.57;98084.70;1787922;79;21441;-76
2021/06/12 04:34:19;;;;;;;9.15;7.65;;;;;;;14.00;79.21;98083.91;1787599;80;20996;-76
2021/06/12 04:36:45;;;;;;;8.83;7.62;;;;;;;14.19;78.36;98079.77;1787928;80;21067;-76
2021/06/12 04:39:11;;;;;;;10.95;8.10;;;;;;;14.40;78.23;98083.70;1787661;80;20981;-76
2021/06/12 04:41:37;;;;;;;9.80;7.47;;;;;;;14.67;77.62;98084.27;1773436;80;21047;-76
2021/06/12 04:44:04;;;;;;;11.78;7.87;;;;;;;14.91;77.40;98084.05;1787645;80;20937;-76
2021/06/12 04:46:30;;;;;;;9.25;7.83;;;;;;;15.14;76.71;98082.18;1765084;81;20972;-76
2021/06/12 04:48:56;;;;;;;9.08;8.00;;;;;;;15.32;76.16;98076.31;1787756;80;20929;-76
2021/06/12 04:51:22;;;;;;;7.92;7.08;;;;;;;15.40;76.28;98072.28;1784852;79;21143;-76
2021/06/12 04:53:48;;;;;;;9.08;7.62;;;;;;;15.47;75.12;98081.41;1787714;79;21060;-76
2021/06/12 04:56:14;;;;;;;12.55;7.80;;;;;;;15.73;75.25;98073.43;1788047;79;20897;-76
2021/06/12 04:58:40;;;;;;;9.25;8.33;;;;;;;15.95;75.09;98075.31;1788130;80;20921;-76
2021/06/12 05:01:06;;;;;;;9.20;7.60;;;;;;;16.05;74.77;98073.67;1748093;81;21024;-76
2021/06/12 05:03:32;;;;;;;7.58;6.75;;;;;;;16.28;74.32;98072.50;1784762;80;21145;-76
2021/06/12 05:05:58;;;;;;;12.37;7.60;;;;;;;16.51;73.54;98065.59;1787919;80;21628;-76
2021/06/12 05:08:24;;;;;;;7.90;7.12;;;;;;;16.87;73.48;98068.92;1787809;79;20911;-76
2021/06/12 05:10:50;;;;;;;9.03;7.25;;;;;;;17.01;73.39;98067.43;1787811;80;21055;-76
2021/06/12 05:13:16;;;;;;;10.40;7.25;;;;;;;17.05;72.77;98064.28;1787804;80;20889;-76
2021/06/12 05:15:42;;;;;;;11.18;7.92;;;;;;;17.15;72.69;98065.33;1787910;80;21805;-76
2021/06/12 05:18:11;;;;;;;8.70;7.25;;;;;;;17.13;72.25;98062.11;1787775;80;21488;-76
2021/06/12 05:20:36;;;;;;;8.40;7.43;;;;;;;17.14;72.05;98063.72;1787762;80;20973;-76
2021/06/12 05:23:03;;;;;;;10.88;7.37;;;;;;;17.20;72.54;98061.08;1765361;80;21064;-76
2021/06/12 05:25:31;;;;;;;8.83;7.28;;;;;;;17.27;72.53;98057.86;1752800;81;21047;-76
2021/06/12 05:27:57;;;;;;;8.93;7.67;;;;;;;17.32;72.57;98054.95;1797247;79;21439;-76
2021/06/12 05:30:23;;;;;;;8.93;7.95;;;;;;;17.37;72.81;98047.95;1765538;80;21012;-77
2021/06/12 05:32:49;;;;;;;8.28;6.92;;;;;;;17.57;72.17;98052.52;1797429;79;21008;-76
2021/06/12 05:35:15;;;;;;;8.48;7.03;;;;;;;17.83;72.25;98046.45;1778317;80;21215;-76
2021/06/12 05:37:41;;;;;;;8.65;7.40;;;;;;;17.97;71.78;98047.06;1797437;79;20980;-76
2021/06/12 05:40:08;;;;;;;9.68;7.50;;;;;;;18.19;71.71;98042.46;1765715;80;21209;-76
2021/06/12 05:42:35;;;;;;;8.83;6.17;;;;;;;18.41;71.30;98044.95;1810228;79;20942;-76
2021/06/12 05:45:01;;;;;;;8.78;7.70;;;;;;;18.64;70.85;98041.94;1752280;81;21445;-76
2021/06/12 05:47:27;;;;;;;13.75;7.67;;;;;;;18.85;70.08;98035.94;1797390;79;20993;-76
2021/06/12 05:49:53;;;;;;;8.98;8.00;;;;;;;18.78;69.30;98027.42;1765602;80;20941;-76
2021/06/12 05:52:19;;;;;;;9.78;7.33;;;;;;;18.92;70.00;98027.17;1797427;79;20977;-76
2021/06/12 05:54:45;;;;;;;8.70;7.60;;;;;;;19.01;70.24;98024.59;1765558;80;20930;-76
2021/06/12 05:57:11;;;;;;;10.30;7.28;;;;;;;19.18;69.91;98019.54;1797531;79;21504;-76
2021/06/12 05:59:37;;;;;;;7.95;6.58;;;;;;;19.30;69.41;98016.03;1765680;81;20914;-76
2021/06/12 06:02:04;;;;;;;7.95;7.15;;;;;;;19.56;69.65;98016.63;1810473;79;21017;-76
2021/06/12 06:04:30;;;;;;;7.92;7.15;;;;;;;19.75;69.18;98018.87;1765702;80;21111;-76
2021/06/12 06:06:56;;;;;;;18.30;7.72;;;;;;;19.95;67.56;98018.57;1797029;79;21016;-76
2021/06/12 06:09:22;;;;;;;12.30;7.03;;;;;;;20.15;67.79;98019.05;1765965;80;20885;-76
2021/06/12 06:11:48;;;;;;;7.47;6.33;;;;;;;20.37;67.54;98025.27;1797390;79;21501;-76
2021/06/12 06:14:13;;;;;;;9.48;7.28;;;;;;;20.53;66.61;98021.52;1766181;80;20971;-76
2021/06/12 06:16:39;;;;;;;15.23;8.03;;;;;;;20.67;66.67;98018.39;1783762;79;21032;-76
2021/06/12 06:19:05;;;;;;;11.03;7.12;;;;;;;20.81;65.56;98020.80;1765856;80;20865;-76
2021/06/12 06:21:31;;;;;;;9.00;6.03;;;;;;;21.02;64.29;98013.19;1797512;79;20869;-76
2021/06/12 06:23:57;;;;;;;8.65;6.15;;;;;;;21.16;64.15;98005.91;1765599;80;21350;-76
2021/06/12 06:26:23;;;;;;;8.88;5.97;;;;;;;21.26;62.49;98011.49;1797306;79;20957;-76
2021/06/12 06:28:50;;;;;;;12.35;7.85;;;;;;;21.34;62.48;98011.37;1765656;80;21120;-76
2021/06/12 06:31:16;;;;;;;14.75;11.10;;;;;;;21.55;62.46;98007.62;1797253;79;21048;-76
2021/06/12 06:33:41;;;;;;;11.85;8.08;;;;;;;21.73;61.61;98004.78;1765831;80;20948;-76
2021/06/12 06:36:08;;;;;;;7.95;6.95;;;;;;;21.81;61.53;98001.64;1797537;79;20873;-76
2021/06/12 06:38:34;;;;;;;8.35;6.30;;;;;;;21.91;60.31;98007.42;1765921;80;20946;-76
2021/06/12 06:41:00;;;;;;;11.35;6.40;;;;;;;21.94;59.96;98005.33;1786422;79;21235;-76
2021/06/12 06:43:26;;;;;;;6.65;5.58;;;;;;;22.05;60.42;98013.90;1765874;81;20881;-76
2021/06/12 06:45:52;;;;;;;8.83;6.05;;;;;;;22.15;59.68;98005.11;1797498;79;20869;-76
2021/06/12 06:48:18;;;;;;;8.60;5.95;;;;;;;22.32;59.31;98006.72;1766436;80;21004;-76
2021/06/12 06:50:45;;;;;;;6.75;6.03;;;;;;;22.40;58.57;98001.59;1797250;79;20909;-76
2021/06/12 06:53:11;;;;;;;12.23;6.25;;;;;;;22.49;58.65;98000.82;1778389;80;21120;-76
2021/06/12 06:55:37;;;;;;;8.43;6.35;;;;;;;22.62;59.22;97996.55;1797214;79;20886;-76
2021/06/12 06:58:04;;;;;;;10.45;6.37;;;;;;;22.77;58.98;97996.53;1765993;80;21119;-76
2021/06/12 07:00:30;;;;;;;12.40;6.62;;;;;;;22.94;57.80;97991.79;1797179;79;21045;-76
2021/06/12 07:02:56;;;;;;;11.97;6.05;;;;;;;23.03;56.21;97991.80;1766083;81;21091;-76
2021/06/12 07:05:22;;;;;;;10.30;5.90;;;;;;;23.14;56.91;97987.87;1797287;79;22004;-76
2021/06/12 07:07:48;;;;;;;9.58;5.67;;;;;;;23.27;56.75;97987.95;1765977;81;21032;-76
2021/06/12 07:10:14;;;;;;;6.00;5.30;;;;;;;23.40;56.55;97985.83;1797236;79;20949;-76
2021/06/12 07:12:40;;;;;;;9.58;4.42;;;;;;;23.48;55.32;97983.42;1766126;81;20945;-76
2021/06/12 07:15:08;;;;;;;6.75;4.83;;;;;;;23.51;51.37;97991.00;1785870;79;20918;-76
2021/06/12 07:17:34;;;;;;;5.60;4.47;;;;;;;23.60;54.46;97989.42;1766160;80;21161;-76
2021/06/12 07:20:01;;;;;;;8.40;5.15;;;;;;;23.70;54.06;97983.88;1797127;79;20953;-76
2021/06/12 07:22:28;;;;;;;7.10;4.62;;;;;;;23.80;52.22;97979.91;1765900;80;20972;-76
2021/06/12 07:24:55;;;;;;;5.08;4.40;;;;;;;23.68;52.60;97984.25;1797008;79;20910;-76
2021/06/12 07:27:21;;;;;;;8.33;5.28;;;;;;;23.81;52.68;97979.33;1766072;80;20985;-76
2021/06/12 07:29:47;;;;;;;7.47;4.87;;;;;;;23.69;52.34;97983.08;1797163;79;20918;-76
2021/06/12 07:32:13;;;;;;;5.33;4.35;;;;;;;23.88;52.07;97976.69;1752707;81;21012;-76
2021/06/12 07:34:39;;;;;;;8.18;4.78;;;;;;;23.64;51.43;97966.77;1810551;79;20909;-76
2021/06/12 07:37:05;;;;;;;6.25;4.47;;;;;;;24.19;50.24;97969.53;1766053;80;20865;-76
2021/06/12 07:39:31;;;;;;;7.65;4.83;;;;;;;24.95;50.82;97970.06;1797195;79;21001;-76
2021/06/12 07:41:57;;;;;;;6.53;3.85;;;;;;;25.53;49.33;97966.84;1766027;80;21287;-76
2021/06/12 07:44:23;;;;;;;8.25;4.55;;;;;;;25.82;47.49;97964.62;1797311;79;20861;-76
2021/06/12 07:46:49;;;;;;;4.72;3.95;;;;;;;26.66;47.16;97956.56;1766239;80;21023;-76
2021/06/12 07:49:15;;;;;;;5.60;3.77;;;;;;;26.94;45.96;97959.52;1797311;79;20866;-77
2021/06/12 07:51:41;;;;;;;4.95;3.40;;;;;;;26.96;42.52;97956.34;1766097;80;20909;-77
2021/06/12 07:54:07;;;;;;;4.08;2.90;;;;;;;27.50;43.41;97955.39;1797377;79;21243;-77
2021/06/12 07:56:33;;;;;;;4.75;2.90;;;;;;;27.62;40.63;97952.06;1765963;81;20865;-77
2021/06/12 07:58:59;;;;;;;5.22;3.20;;;;;;;28.36;41.41;97952.16;1810718;79;20905;-77
2021/06/12 08:01:25;;;;;;;4.17;3.05;;;;;;;28.65;39.51;97959.11;1766029;80;20877;-77
2021/06/12 08:03:51;;;;;;;4.03;2.77;;;;;;;28.96;39.01;97958.05;1783483;79;21001;-77
2021/06/12 08:06:17;;;;;;;19.87;3.42;;;;;;;28.74;36.61;97967.84;1765914;80;21318;-77
2021/06/12 08:08:43;;;;;;;21.27;4.97;;;;;;;29.11;35.24;97960.99;1797216;79;20873;-77
2021/06/12 08:11:09;;;;;;;9.98;4.47;;;;;;;29.29;36.12;97960.92;1765723;80;20972;-77
2021/06/12 08:13:35;;;;;;;14.45;4.37;;;;;;;28.29;35.88;97952.78;1797365;79;20909;-77
2021/06/12 08:16:03;;;;;;;10.98;2.55;;;;;;;28.56;36.91;97955.34;1752552;81;21032;-77
2021/06/12 08:18:29;;;;;;;5.95;2.83;;;;;;;28.96;36.68;97961.62;1797421;79;26926;-77
2021/06/12 08:20:55;;;;;;;3.85;2.95;;;;;;;29.16;33.54;97960.59;1765809;80;20928;-77
2021/06/12 08:23:22;;;;;;;5.72;3.47;;;;;;;29.73;35.67;97965.89;1797245;79;20891;-77
2021/06/12 08:25:48;;;;;;;4.55;2.87;;;;;;;29.34;33.67;97968.28;1752577;81;21104;-77
2021/06/12 08:28:14;;;;;;;11.25;4.42;;;;;;;28.90;34.88;97968.23;1797413;79;20898;-77
2021/06/12 08:30:40;;;;;;;3.65;2.70;;;;;;;29.90;34.81;97964.19;1751119;81;21146;-77
2021/06/12 08:33:07;;;;;;;6.33;3.02;;;;;;;30.26;34.32;97963.38;1765773;80;20861;-77
2021/06/12 08:35:33;;;;;;;8.13;3.02;;;;;;;30.44;32.51;97959.81;1797658;79;21296;-77
2021/06/12 08:37:59;;;;;;;6.67;3.37;;;;;;;30.04;32.15;97969.69;1765906;80;20885;-77
2021/06/12 08:40:25;;;;;;;4.67;2.40;;;;;;;30.40;31.39;97957.64;1797628;79;20858;-77
2021/06/12 08:42:51;;;;;;;5.20;2.85;;;;;;;30.41;32.03;97954.24;1778498;80;21075;-77
2021/06/12 08:45:19;;;;;;;5.95;3.15;;;;;;;30.58;32.18;97957.47;1797129;79;20891;-77
2021/06/12 08:47:45;;;;;;;5.37;3.10;;;;;;;30.84;30.00;97958.84;1765943;80;20969;-77
2021/06/12 08:50:11;;;;;;;5.47;3.22;;;;;;;30.67;29.96;97958.42;1797196;79;21374;-77
2021/06/12 08:52:38;;;;;;;5.03;2.95;;;;;;;30.46;29.83;97955.20;1765977;80;21075;-77
2021/06/12 08:55:06;;;;;;;5.87;2.50;;;;;;;30.75;31.01;97953.73;1797436;79;20969;-77
2021/06/12 08:57:32;;;;;;;5.70;2.50;;;;;;;31.30;30.40;97948.55;1765857;80;21041;-77
2021/06/12 08:59:58;;;;;;;4.10;2.52;;;;;;;31.15;28.30;97954.09;1797143;79;20934;-77
2021/06/12 09:02:24;;;;;;;3.22;2.45;;;;;;;31.67;29.03;97951.83;1765975;81;20925;-77
2021/06/12 09:04:52;;;;;;;2.42;2.17;;;;;;;32.57;28.80;97942.86;1797103;79;20854;-77
2021/06/12 09:07:29;;;;;;;6.62;3.10;;;;;;;32.56;27.09;97937.06;1765988;80;21880;-77
2021/06/12 09:09:57;;;;;;;2.80;2.37;;;;;;;33.30;27.27;97935.42;1782453;79;20902;-78
2021/06/12 09:12:49;;;;;;;7.60;2.75;;;;;;;32.83;26.84;97934.94;1752779;81;21000;-78
2021/06/12 09:15:17;;;;;;;4.90;2.77;;;;;;;32.96;26.26;97934.32;1797165;79;20950;-77
2021/06/12 09:17:50;;;;;;;4.85;2.67;;;;;;;31.88;27.11;97931.16;1765848;80;21422;-77
2021/06/12 09:20:21;;;;;;;6.00;2.45;;;;;;;31.93;27.18;97920.86;1786349;79;20965;-77
2021/06/12 09:22:47;;;;;;;8.90;2.42;;;;;;;31.97;27.81;97926.42;1763975;81;21363;-77
2021/06/12 09:25:25;;;;;;;19.40;4.03;;;;;;;32.50;26.67;97918.53;1734707;80;20866;-77
2021/06/12 09:27:56;;;;;;;;;;;;;;;33.78;26.15;97915.74;1781144;80;20985;-77
2021/06/12 09:30:23;;;;;;;8.55;2.83;;;;;;;33.32;24.61;97920.33;1785255;79;20176;-77
2021/06/12 09:32:49;;;;;;;17.73;4.30;;;;;;;33.96;25.11;97918.16;1758984;80;21656;-77
2021/06/12 09:35:15;;;;;;;5.78;3.08;;;;;;;33.90;24.26;97916.47;1787634;79;20925;-77
2021/06/12 09:37:41;;;;;;;5.50;2.58;;;;;;;32.60;25.35;97917.36;1788070;79;20948;-77
2021/06/12 09:40:14;;;;;;;6.22;2.27;;;;;;;33.77;24.93;97915.56;1765001;81;20873;-77
2021/06/12 09:42:54;;;;;;;3.22;2.22;;;;;;;34.44;24.57;97911.14;1787555;80;21037;-77
2021/06/12 09:45:29;;;;;;;3.25;2.12;;;;;;;33.07;24.69;97911.03;1764910;81;21882;-77
2021/06/12 09:48:17;;;;;;;4.45;2.40;;;;;;;33.54;24.52;97908.06;1787847;80;20966;-78
2021/06/12 09:50:46;;;;;;;5.90;2.62;;;;;;;33.14;24.48;97910.89;1787603;80;21425;-78
2021/06/12 09:53:19;;;;;;;6.58;2.30;;;;;;;33.70;24.01;97907.30;1787866;80;20922;-78
2021/06/12 09:55:45;;;;;;;27.35;3.33;;;;;;;33.31;23.99;97912.53;1786886;80;20910;-76
2021/06/12 09:58:11;;;;;;;3.35;1.95;;;;;;;34.13;24.45;97916.31;1787968;80;22070;-76
2021/06/12 10:00:46;;;;;;;2.85;2.02;;;;;;;33.64;24.19;97902.19;1787692;80;20862;-76
2021/06/12 10:03:22;;;;;;;2.98;2.25;;;;;;;33.51;24.47;97901.92;1773182;80;20925;-77
2021/06/12 10:05:48;;;;;;;4.67;2.52;;;;;;;31.83;26.31;97896.62;1787641;80;20997;-76
2021/06/12 10:08:15;;;;;;;2.58;2.15;;;;;;;32.46;25.90;97898.16;1764972;80;20914;-76
2021/06/12 10:10:46;;;;;;;3.35;2.05;;;;;;;31.09;26.92;97890.02;1787624;80;21107;-76
2021/06/12 10:13:12;;;;;;;3.40;2.30;;;;;;;30.22;28.43;97884.36;1788007;80;20969;-77
2021/06/12 10:15:38;;;;;;;3.90;2.58;;;;;;;30.53;28.42;97884.66;1784825;80;20889;-77
2021/06/12 10:18:04;;;;;;;4.15;2.17;;;;;;;30.44;28.02;97877.97;1788009;80;21014;-77
2021/06/12 10:20:30;;;;;;;2.58;2.10;;;;;;;30.53;28.06;97881.86;1787961;79;21485;-77
2021/06/12 10:22:56;;;;;;;4.40;2.72;;;;;;;30.03;29.20;97876.72;1788019;79;22015;-77
2021/06/12 10:25:23;;;;;;;3.08;2.15;;;;;;;30.05;28.93;97875.70;1765489;81;20945;-77
2021/06/12 10:27:49;;;;;;;3.45;2.40;;;;;;;30.82;28.37;97868.97;1766002;80;21008;-77
2021/06/12 10:30:18;;;;;;;10.68;2.58;;;;;;;30.75;28.59;97866.25;1797850;79;20954;-77
2021/06/12 10:32:47;;;;;;;8.28;2.90;;;;;;;30.45;28.69;97861.38;1765965;80;21024;-77
2021/06/12 10:35:25;;;;;;;4.90;2.67;;;;;;;31.11;28.62;97865.23;1797330;79;21473;-77
2021/06/12 10:38:16;;;;;;;4.30;3.15;;;;;;;31.48;28.17;97856.53;1777825;80;21457;-77
2021/06/12 10:40:53;;;;;;;5.03;2.98;;;;;;;32.47;27.37;97849.27;1797341;79;20899;-76
2021/06/12 10:43:25;;;;;;;2.80;2.33;;;;;;;32.47;27.37;97849.27;1766118;80;21060;-76
2021/06/12 10:46:11;;;;;;;5.72;2.60;;;;;;;31.84;27.44;97853.98;1786427;79;21004;-77
2021/06/12 10:48:40;;;;;;;34.30;3.80;;;;;;;32.81;25.29;97848.20;1765919;80;21297;-77
2021/06/12 10:51:10;;;;;;;3.22;2.30;;;;;;;33.81;25.65;97849.63;1797485;79;20961;-77
2021/06/12 10:53:40;;;;;;;9.58;2.22;;;;;;;34.77;24.16;97842.89;1765865;81;21367;-77
2021/06/12 10:56:15;;;;;;;4.12;1.80;;;;;;;34.34;23.81;97843.27;1797376;79;20922;-77
2021/06/12 10:58:43;;;;;;;3.12;2.33;;;;;;;32.14;24.98;97838.47;1749376;81;21024;-77
2021/06/12 11:01:17;;;;;;;8.90;2.40;;;;;;;31.17;26.58;97832.13;1797512;79;21749;-77
2021/06/12 11:03:58;;;;;;;6.78;2.75;;;;;;;30.19;28.18;97828.72;1765910;80;21009;-75
2021/06/12 11:06:47;;;;;;;3.42;2.45;;;;;;;30.96;27.41;97836.64;1797168;79;21004;-77
2021/06/12 11:09:28;;;;;;;3.47;2.20;;;;;;;31.78;26.35;97833.27;1765993;81;20949;-77
2021/06/12 11:11:57;;;;;;;3.52;2.50;;;;;;;32.15;25.08;97830.23;1797156;79;20926;-76
2021/06/12 11:14:27;;;;;;;5.03;2.60;;;;;;;30.24;27.63;97832.44;1765113;80;21873;-77
2021/06/12 11:17:11;;;;;;;3.22;2.20;;;;;;;30.96;27.98;97831.05;1797162;79;20894;-77
2021/06/12 11:19:58;;;;;;;17.25;2.80;;;;;;;31.17;27.19;97834.94;1765789;81;20957;-77
2021/06/12 11:22:37;;;;;;;3.27;2.90;;;;;;;29.88;28.85;97822.79;1797813;79;20922;-77
2021/06/12 11:25:15;;;;;;;3.15;2.50;;;;;;;29.42;29.58;97825.33;1765706;80;21559;-77
2021/06/12 11:27:47;;;;;;;4.12;2.50;;;;;;;28.85;30.44;97831.20;1797121;79;21168;-77
2021/06/12 11:30:23;;;;;;;5.08;2.72;;;;;;;28.70;30.43;97820.70;1765978;80;20954;-77
2021/06/12 11:33:04;;;;;;;4.80;2.92;;;;;;;28.51;31.07;97819.19;1797383;79;21395;-77
2021/06/12 11:35:52;;;;;;;4.30;2.37;;;;;;;28.55;31.90;97819.98;1765966;80;21485;-76